sensor_id;sensor_type;location;lat;lon;timestamp;temperature;humidity
18948;DHT22;9607;51.600;7.558;2024-01-15T00:01:30;1.20;99.90
18948;DHT22;9607;51.600;7.558;2024-01-15T00:03:56;1.30;99.90
18948;DHT22;9607;51.600;7.558;2024-01-15T00:06:24;1.30;99.90
18948;DHT22;9607;51.600;7.558;2024-01-15T00:08:52;1.30;99.90
18948;DHT22;9607;51.600;7.558;2024-01-15T00:11:19;1.30;99.90
18948;DHT22;9607;51.600;7.558;2024-01-15T00:13:46;1.30;99.90
18948;DHT22;9607;51.600;7.558;2024-01-15T00:16:13;1.30;99.90
18948;DHT22;9607;51.600;7.558;2024-01-15T00:18:39;1.30;99.90
18948;DHT22;9607;51.600;7.558;2024-01-15T00:21:06;1.30;99.90
18948;DHT22;9607;51.600;7.558;2024-01-15T00:23:34;1.30;99.90
18948;DHT22;9607;51.600;7.558;2024-01-15T00:26:01;1.30;99.90
18948;DHT22;9607;51.600;7.558;2024-01-15T00:28:28;1.40;99.90
18948;DHT22;9607;51.600;7.558;2024-01-15T00:30:55;1.40;99.90
18948;DHT22;9607;51.600;7.558;2024-01-15T00:33:21;1.40;99.90
18948;DHT22;9607;51.600;7.558;2024-01-15T00:35:48;1.40;99.90
18948;DHT22;9607;51.600;7.558;2024-01-15T00:38:15;1.40;99.90
18948;DHT22;9607;51.600;7.558;2024-01-15T00:40:44;1.40;99.90
18948;DHT22;9607;51.600;7.558;2024-01-15T00:43:10;1.40;99.90
18948;DHT22;9607;51.600;7.558;2024-01-15T00:45:37;1.40;99.90
18948;DHT22;9607;51.600;7.558;2024-01-15T00:48:05;1.40;99.90
18948;DHT22;9607;51.600;7.558;2024-01-15T00:50:32;1.40;99.90
18948;DHT22;9607;51.600;7.558;2024-01-15T00:52:58;1.40;99.90
18948;DHT22;9607;51.600;7.558;2024-01-15T00:55:25;1.40;99.90
18948;DHT22;9607;51.600;7.558;2024-01-15T00:57:53;1.40;99.90
18948;DHT22;9607;51.600;7.558;2024-01-15T01:00:20;1.40;99.90
18948;DHT22;9607;51.600;7.558;2024-01-15T01:02:47;1.50;99.90
18948;DHT22;9607;51.600;7.558;2024-01-15T01:05:14;1.50;99.90
18948;DHT22;9607;51.600;7.558;2024-01-15T01:07:40;1.50;99.90
18948;DHT22;9607;51.600;7.558;2024-01-15T01:10:08;1.50;99.90
18948;DHT22;9607;51.600;7.558;2024-01-15T01:12:35;1.50;99.90
18948;DHT22;9607;51.600;7.558;2024-01-15T01:15:04;1.50;99.90
18948;DHT22;9607;51.600;7.558;2024-01-15T01:17:31;1.50;99.90
18948;DHT22;9607;51.600;7.558;2024-01-15T01:19:57;1.50;99.90
18948;DHT22;9607;51.600;7.558;2024-01-15T01:22:24;1.50;99.90
18948;DHT22;9607;51.600;7.558;2024-01-15T01:24:51;1.50;99.90
18948;DHT22;9607;51.600;7.558;2024-01-15T01:27:18;1.50;99.90
18948;DHT22;9607;51.600;7.558;2024-01-15T01:29:44;1.50;99.90
18948;DHT22;9607;51.600;7.558;2024-01-15T01:32:12;1.50;99.90
18948;DHT22;9607;51.600;7.558;2024-01-15T01:34:40;1.50;99.90
18948;DHT22;9607;51.600;7.558;2024-01-15T01:37:08;1.50;99.90
18948;DHT22;9607;51.600;7.558;2024-01-15T01:39:34;1.50;99.90
18948;DHT22;9607;51.600;7.558;2024-01-15T01:42:01;1.50;99.90
18948;DHT22;9607;51.600;7.558;2024-01-15T01:44:28;1.50;99.90
18948;DHT22;9607;51.600;7.558;2024-01-15T01:46:55;1.50;99.90
18948;DHT22;9607;51.600;7.558;2024-01-15T01:49:25;1.50;99.90
18948;DHT22;9607;51.600;7.558;2024-01-15T01:51:53;1.50;99.90
18948;DHT22;9607;51.600;7.558;2024-01-15T01:54:21;1.50;99.90
18948;DHT22;9607;51.600;7.558;2024-01-15T01:56:48;1.50;99.90
18948;DHT22;9607;51.600;7.558;2024-01-15T01:59:16;1.60;99.90
18948;DHT22;9607;51.600;7.558;2024-01-15T02:01:44;1.60;99.90
18948;DHT22;9607;51.600;7.558;2024-01-15T02:04:11;1.60;99.90
18948;DHT22;9607;51.600;7.558;2024-01-15T02:06:39;1.60;99.90
18948;DHT22;9607;51.600;7.558;2024-01-15T02:09:08;1.60;99.90
18948;DHT22;9607;51.600;7.558;2024-01-15T02:11:35;1.60;99.90
18948;DHT22;9607;51.600;7.558;2024-01-15T02:14:02;1.60;99.90
18948;DHT22;9607;51.600;7.558;2024-01-15T02:16:29;1.60;99.90
18948;DHT22;9607;51.600;7.558;2024-01-15T02:18:56;1.60;99.90
18948;DHT22;9607;51.600;7.558;2024-01-15T02:21:23;1.70;99.90
18948;DHT22;9607;51.600;7.558;2024-01-15T02:23:53;1.70;99.90
18948;DHT22;9607;51.600;7.558;2024-01-15T02:26:20;1.70;99.90
18948;DHT22;9607;51.600;7.558;2024-01-15T02:28:47;1.70;99.90
18948;DHT22;9607;51.600;7.558;2024-01-15T02:31:14;1.70;99.90
18948;DHT22;9607;51.600;7.558;2024-01-15T02:33:42;1.70;99.90
18948;DHT22;9607;51.600;7.558;2024-01-15T02:36:09;1.70;99.90
18948;DHT22;9607;51.600;7.558;2024-01-15T02:38:35;1.70;99.90
18948;DHT22;9607;51.600;7.558;2024-01-15T02:41:04;1.70;99.90
18948;DHT22;9607;51.600;7.558;2024-01-15T02:43:31;1.70;99.90
18948;DHT22;9607;51.600;7.558;2024-01-15T02:45:58;1.70;99.90
18948;DHT22;9607;51.600;7.558;2024-01-15T02:48:24;1.70;99.90
18948;DHT22;9607;51.600;7.558;2024-01-15T02:50:51;1.70;99.90
18948;DHT22;9607;51.600;7.558;2024-01-15T02:53:18;1.70;99.90
18948;DHT22;9607;51.600;7.558;2024-01-15T02:55:45;1.70;99.90
18948;DHT22;9607;51.600;7.558;2024-01-15T02:58:14;1.70;99.90
18948;DHT22;9607;51.600;7.558;2024-01-15T03:00:41;1.70;99.90
18948;DHT22;9607;51.600;7.558;2024-01-15T03:03:08;1.70;99.90
18948;DHT22;9607;51.600;7.558;2024-01-15T03:05:35;1.70;99.90
18948;DHT22;9607;51.600;7.558;2024-01-15T03:08:01;1.70;99.90
18948;DHT22;9607;51.600;7.558;2024-01-15T03:10:28;1.70;99.90
18948;DHT22;9607;51.600;7.558;2024-01-15T03:12:55;1.60;99.90
18948;DHT22;9607;51.600;7.558;2024-01-15T03:15:23;1.60;99.90
18948;DHT22;9607;51.600;7.558;2024-01-15T03:17:50;1.70;99.90
18948;DHT22;9607;51.600;7.558;2024-01-15T03:20:17;1.70;99.90
18948;DHT22;9607;51.600;7.558;2024-01-15T03:22:44;1.60;99.90
18948;DHT22;9607;51.600;7.558;2024-01-15T03:25:10;1.70;99.90
18948;DHT22;9607;51.600;7.558;2024-01-15T03:27:40;1.70;99.90
18948;DHT22;9607;51.600;7.558;2024-01-15T03:30:08;1.60;99.90
18948;DHT22;9607;51.600;7.558;2024-01-15T03:32:36;1.70;99.90
18948;DHT22;9607;51.600;7.558;2024-01-15T03:35:04;1.70;99.90
18948;DHT22;9607;51.600;7.558;2024-01-15T03:37:31;1.70;99.90
18948;DHT22;9607;51.600;7.558;2024-01-15T03:39:57;1.70;99.90
18948;DHT22;9607;51.600;7.558;2024-01-15T03:42:24;1.70;99.90
18948;DHT22;9607;51.600;7.558;2024-01-15T03:44:51;1.70;99.90
18948;DHT22;9607;51.600;7.558;2024-01-15T03:47:18;1.70;99.90
18948;DHT22;9607;51.600;7.558;2024-01-15T03:49:46;1.70;99.90
18948;DHT22;9607;51.600;7.558;2024-01-15T03:52:13;1.60;99.90
18948;DHT22;9607;51.600;7.558;2024-01-15T03:54:40;1.60;99.90
18948;DHT22;9607;51.600;7.558;2024-01-15T03:57:07;1.60;99.90
18948;DHT22;9607;51.600;7.558;2024-01-15T03:59:33;1.60;99.90
18948;DHT22;9607;51.600;7.558;2024-01-15T04:02:00;1.60;99.90
18948;DHT22;9607;51.600;7.558;2024-01-15T04:04:27;1.50;99.90
18948;DHT22;9607;51.600;7.558;2024-01-15T04:06:55;1.60;99.90
18948;DHT22;9607;51.600;7.558;2024-01-15T04:09:22;1.60;99.90
18948;DHT22;9607;51.600;7.558;2024-01-15T04:11:48;1.60;99.90
18948;DHT22;9607;51.600;7.558;2024-01-15T04:14:15;1.50;99.90
18948;DHT22;9607;51.600;7.558;2024-01-15T04:16:42;1.50;99.90
18948;DHT22;9607;51.600;7.558;2024-01-15T04:19:09;1.50;99.90
18948;DHT22;9607;51.600;7.558;2024-01-15T04:21:36;1.40;99.90
18948;DHT22;9607;51.600;7.558;2024-01-15T04:24:05;1.40;99.90
18948;DHT22;9607;51.600;7.558;2024-01-15T04:26:32;1.40;99.90
18948;DHT22;9607;51.600;7.558;2024-01-15T04:28:59;1.40;99.90
18948;DHT22;9607;51.600;7.558;2024-01-15T04:31:26;1.50;99.90
18948;DHT22;9607;51.600;7.558;2024-01-15T04:33:53;1.50;99.90
18948;DHT22;9607;51.600;7.558;2024-01-15T04:36:20;1.60;99.90
18948;DHT22;9607;51.600;7.558;2024-01-15T04:38:46;1.60;99.90
18948;DHT22;9607;51.600;7.558;2024-01-15T04:41:16;1.60;99.90
18948;DHT22;9607;51.600;7.558;2024-01-15T04:43:43;1.70;99.90
18948;DHT22;9607;51.600;7.558;2024-01-15T04:46:09;1.70;99.90
18948;DHT22;9607;51.600;7.558;2024-01-15T04:48:36;1.70;99.90
18948;DHT22;9607;51.600;7.558;2024-01-15T04:51:04;1.70;99.90
18948;DHT22;9607;51.600;7.558;2024-01-15T04:53:31;1.70;99.90
18948;DHT22;9607;51.600;7.558;2024-01-15T04:55:58;1.80;99.90
18948;DHT22;9607;51.600;7.558;2024-01-15T04:58:26;1.80;99.90
18948;DHT22;9607;51.600;7.558;2024-01-15T05:00:53;1.80;99.90
18948;DHT22;9607;51.600;7.558;2024-01-15T05:03:20;1.80;99.90
18948;DHT22;9607;51.600;7.558;2024-01-15T05:05:47;1.80;99.90
18948;DHT22;9607;51.600;7.558;2024-01-15T05:08:14;1.80;99.90
18948;DHT22;9607;51.600;7.558;2024-01-15T05:10:41;1.90;99.90
18948;DHT22;9607;51.600;7.558;2024-01-15T05:13:07;1.80;99.90
18948;DHT22;9607;51.600;7.558;2024-01-15T05:15:36;1.80;99.90
18948;DHT22;9607;51.600;7.558;2024-01-15T05:18:05;1.80;99.90
18948;DHT22;9607;51.600;7.558;2024-01-15T05:20:31;1.80;99.90
18948;DHT22;9607;51.600;7.558;2024-01-15T05:22:58;1.80;99.90
18948;DHT22;9607;51.600;7.558;2024-01-15T05:25:25;1.80;99.90
18948;DHT22;9607;51.600;7.558;2024-01-15T05:27:52;1.80;99.90
18948;DHT22;9607;51.600;7.558;2024-01-15T05:30:18;1.80;99.90
18948;DHT22;9607;51.600;7.558;2024-01-15T05:32:47;1.80;99.90
18948;DHT22;9607;51.600;7.558;2024-01-15T05:35:13;1.90;99.90
18948;DHT22;9607;51.600;7.558;2024-01-15T05:37:43;1.90;99.90
18948;DHT22;9607;51.600;7.558;2024-01-15T05:40:11;1.90;99.90
18948;DHT22;9607;51.600;7.558;2024-01-15T05:42:38;1.90;99.90
18948;DHT22;9607;51.600;7.558;2024-01-15T05:45:06;1.90;99.90
18948;DHT22;9607;51.600;7.558;2024-01-15T05:47:33;1.90;99.90
18948;DHT22;9607;51.600;7.558;2024-01-15T05:50:01;2.00;99.90
18948;DHT22;9607;51.600;7.558;2024-01-15T05:52:28;1.90;99.90
18948;DHT22;9607;51.600;7.558;2024-01-15T05:54:54;2.00;99.90
18948;DHT22;9607;51.600;7.558;2024-01-15T05:57:22;2.00;99.90
18948;DHT22;9607;51.600;7.558;2024-01-15T05:59:49;2.00;99.90
18948;DHT22;9607;51.600;7.558;2024-01-15T06:02:15;2.00;99.90
18948;DHT22;9607;51.600;7.558;2024-01-15T06:04:42;2.00;99.90
18948;DHT22;9607;51.600;7.558;2024-01-15T06:07:11;2.00;99.90
18948;DHT22;9607;51.600;7.558;2024-01-15T06:09:38;2.00;99.90
18948;DHT22;9607;51.600;7.558;2024-01-15T06:12:06;2.00;99.90
18948;DHT22;9607;51.600;7.558;2024-01-15T06:14:33;2.00;99.90
18948;DHT22;9607;51.600;7.558;2024-01-15T06:17:00;2.00;99.90
18948;DHT22;9607;51.600;7.558;2024-01-15T06:19:27;2.00;99.90
18948;DHT22;9607;51.600;7.558;2024-01-15T06:21:54;2.00;99.90
18948;DHT22;9607;51.600;7.558;2024-01-15T06:24:22;2.10;99.90
18948;DHT22;9607;51.600;7.558;2024-01-15T06:26:48;2.00;99.90
18948;DHT22;9607;51.600;7.558;2024-01-15T06:29:15;2.00;99.90
18948;DHT22;9607;51.600;7.558;2024-01-15T06:31:42;2.00;99.90
18948;DHT22;9607;51.600;7.558;2024-01-15T06:34:09;2.00;99.90
18948;DHT22;9607;51.600;7.558;2024-01-15T06:36:36;2.00;99.90
18948;DHT22;9607;51.600;7.558;2024-01-15T06:39:03;2.00;99.90
18948;DHT22;9607;51.600;7.558;2024-01-15T06:41:32;2.00;99.90
18948;DHT22;9607;51.600;7.558;2024-01-15T06:43:58;2.00;99.90
18948;DHT22;9607;51.600;7.558;2024-01-15T06:46:25;1.90;99.90
18948;DHT22;9607;51.600;7.558;2024-01-15T06:48:52;1.90;99.90
18948;DHT22;9607;51.600;7.558;2024-01-15T06:51:19;1.90;99.90
18948;DHT22;9607;51.600;7.558;2024-01-15T06:53:46;1.90;99.90
18948;DHT22;9607;51.600;7.558;2024-01-15T06:56:12;1.90;99.90
18948;DHT22;9607;51.600;7.558;2024-01-15T06:58:41;2.00;99.90
18948;DHT22;9607;51.600;7.558;2024-01-15T07:01:07;1.90;99.90
18948;DHT22;9607;51.600;7.558;2024-01-15T07:03:34;1.90;99.90
18948;DHT22;9607;51.600;7.558;2024-01-15T07:06:01;2.00;99.90
18948;DHT22;9607;51.600;7.558;2024-01-15T07:08:28;2.00;99.90
18948;DHT22;9607;51.600;7.558;2024-01-15T07:10:55;2.00;99.90
18948;DHT22;9607;51.600;7.558;2024-01-15T07:13:22;1.90;99.90
18948;DHT22;9607;51.600;7.558;2024-01-15T07:15:50;1.90;99.90
18948;DHT22;9607;51.600;7.558;2024-01-15T07:18:17;1.90;99.90
18948;DHT22;9607;51.600;7.558;2024-01-15T07:20:43;1.90;99.90
18948;DHT22;9607;51.600;7.558;2024-01-15T07:23:10;2.00;99.90
18948;DHT22;9607;51.600;7.558;2024-01-15T07:25:37;2.00;99.90
18948;DHT22;9607;51.600;7.558;2024-01-15T07:28:05;2.00;99.90
18948;DHT22;9607;51.600;7.558;2024-01-15T07:30:31;2.00;99.90
18948;DHT22;9607;51.600;7.558;2024-01-15T07:32:59;2.00;99.90
18948;DHT22;9607;51.600;7.558;2024-01-15T07:35:26;2.00;99.90
18948;DHT22;9607;51.600;7.558;2024-01-15T07:37:53;2.00;99.90
18948;DHT22;9607;51.600;7.558;2024-01-15T07:40:20;2.00;99.90
18948;DHT22;9607;51.600;7.558;2024-01-15T07:42:47;2.10;99.90
18948;DHT22;9607;51.600;7.558;2024-01-15T07:45:13;2.00;99.90
18948;DHT22;9607;51.600;7.558;2024-01-15T07:47:40;2.10;99.90
18948;DHT22;9607;51.600;7.558;2024-01-15T07:50:08;2.10;99.90
18948;DHT22;9607;51.600;7.558;2024-01-15T07:52:35;2.10;99.90
18948;DHT22;9607;51.600;7.558;2024-01-15T07:55:02;2.10;99.90
18948;DHT22;9607;51.600;7.558;2024-01-15T07:57:31;2.10;99.90
18948;DHT22;9607;51.600;7.558;2024-01-15T07:59:57;2.10;99.90
18948;DHT22;9607;51.600;7.558;2024-01-15T08:02:24;2.10;99.90
18948;DHT22;9607;51.600;7.558;2024-01-15T08:04:51;2.10;99.90
18948;DHT22;9607;51.600;7.558;2024-01-15T08:07:19;1.90;99.90
18948;DHT22;9607;51.600;7.558;2024-01-15T08:09:46;1.80;99.90
18948;DHT22;9607;51.600;7.558;2024-01-15T08:12:14;1.70;99.90
18948;DHT22;9607;51.600;7.558;2024-01-15T08:14:41;1.60;99.90
18948;DHT22;9607;51.600;7.558;2024-01-15T08:17:08;1.70;99.90
18948;DHT22;9607;51.600;7.558;2024-01-15T08:19:35;1.70;99.90
18948;DHT22;9607;51.600;7.558;2024-01-15T08:22:01;1.70;99.90
18948;DHT22;9607;51.600;7.558;2024-01-15T08:24:30;1.70;99.90
18948;DHT22;9607;51.600;7.558;2024-01-15T08:26:57;1.70;99.90
18948;DHT22;9607;51.600;7.558;2024-01-15T08:29:24;1.70;99.90
18948;DHT22;9607;51.600;7.558;2024-01-15T08:31:51;1.70;99.90
18948;DHT22;9607;51.600;7.558;2024-01-15T08:34:18;1.70;99.90
18948;DHT22;9607;51.600;7.558;2024-01-15T08:36:45;1.70;99.90
18948;DHT22;9607;51.600;7.558;2024-01-15T08:39:11;1.70;99.90
18948;DHT22;9607;51.600;7.558;2024-01-15T08:41:39;1.60;99.90
18948;DHT22;9607;51.600;7.558;2024-01-15T08:44:06;1.70;99.90
18948;DHT22;9607;51.600;7.558;2024-01-15T08:46:33;1.70;99.90
18948;DHT22;9607;51.600;7.558;2024-01-15T08:49:00;1.70;99.90
18948;DHT22;9607;51.600;7.558;2024-01-15T08:51:26;1.70;99.90
18948;DHT22;9607;51.600;7.558;2024-01-15T08:53:53;1.70;99.90
18948;DHT22;9607;51.600;7.558;2024-01-15T08:56:20;1.70;99.90
18948;DHT22;9607;51.600;7.558;2024-01-15T08:58:48;1.70;99.90
18948;DHT22;9607;51.600;7.558;2024-01-15T09:01:15;1.70;99.90
18948;DHT22;9607;51.600;7.558;2024-01-15T09:03:42;1.80;99.90
18948;DHT22;9607;51.600;7.558;2024-01-15T09:06:09;1.80;99.90
18948;DHT22;9607;51.600;7.558;2024-01-15T09:08:36;1.80;99.90
18948;DHT22;9607;51.600;7.558;2024-01-15T09:11:03;1.80;99.90
18948;DHT22;9607;51.600;7.558;2024-01-15T09:13:30;1.80;99.90
18948;DHT22;9607;51.600;7.558;2024-01-15T09:15:58;1.80;99.90
18948;DHT22;9607;51.600;7.558;2024-01-15T09:18:26;1.80;99.90
18948;DHT22;9607;51.600;7.558;2024-01-15T09:20:53;1.80;99.90
18948;DHT22;9607;51.600;7.558;2024-01-15T09:23:20;1.80;99.90
18948;DHT22;9607;51.600;7.558;2024-01-15T09:25:46;1.80;99.90
18948;DHT22;9607;51.600;7.558;2024-01-15T09:28:14;1.80;99.90
18948;DHT22;9607;51.600;7.558;2024-01-15T09:30:41;1.80;99.90
18948;DHT22;9607;51.600;7.558;2024-01-15T09:33:09;1.80;99.90
18948;DHT22;9607;51.600;7.558;2024-01-15T09:35:35;1.80;99.90
18948;DHT22;9607;51.600;7.558;2024-01-15T09:38:02;1.90;99.90
18948;DHT22;9607;51.600;7.558;2024-01-15T09:40:31;1.90;99.90
18948;DHT22;9607;51.600;7.558;2024-01-15T09:42:59;1.90;99.90
18948;DHT22;9607;51.600;7.558;2024-01-15T09:45:26;1.90;99.90
18948;DHT22;9607;51.600;7.558;2024-01-15T09:47:53;1.80;99.90
18948;DHT22;9607;51.600;7.558;2024-01-15T09:50:21;1.90;99.90
18948;DHT22;9607;51.600;7.558;2024-01-15T09:52:49;1.90;99.90
18948;DHT22;9607;51.600;7.558;2024-01-15T09:55:17;1.80;99.90
18948;DHT22;9607;51.600;7.558;2024-01-15T09:57:44;1.90;99.90
18948;DHT22;9607;51.600;7.558;2024-01-15T10:00:13;1.90;99.90
18948;DHT22;9607;51.600;7.558;2024-01-15T10:02:41;1.80;99.90
18948;DHT22;9607;51.600;7.558;2024-01-15T10:05:08;1.80;99.90
18948;DHT22;9607;51.600;7.558;2024-01-15T10:07:37;1.90;99.90
18948;DHT22;9607;51.600;7.558;2024-01-15T10:10:05;1.90;99.90
18948;DHT22;9607;51.600;7.558;2024-01-15T10:12:32;1.90;99.90
18948;DHT22;9607;51.600;7.558;2024-01-15T10:14:59;1.90;99.90
18948;DHT22;9607;51.600;7.558;2024-01-15T10:17:26;1.90;99.90
18948;DHT22;9607;51.600;7.558;2024-01-15T10:19:53;1.90;99.90
18948;DHT22;9607;51.600;7.558;2024-01-15T10:22:20;1.90;99.90
18948;DHT22;9607;51.600;7.558;2024-01-15T10:24:49;1.90;99.90
18948;DHT22;9607;51.600;7.558;2024-01-15T10:27:16;1.90;99.90
18948;DHT22;9607;51.600;7.558;2024-01-15T10:29:43;1.90;99.90
18948;DHT22;9607;51.600;7.558;2024-01-15T10:32:10;1.90;99.90
18948;DHT22;9607;51.600;7.558;2024-01-15T10:34:38;1.90;99.90
18948;DHT22;9607;51.600;7.558;2024-01-15T10:37:07;1.90;99.90
18948;DHT22;9607;51.600;7.558;2024-01-15T10:39:34;1.90;99.90
18948;DHT22;9607;51.600;7.558;2024-01-15T10:42:03;1.90;99.90
18948;DHT22;9607;51.600;7.558;2024-01-15T10:44:30;1.90;99.90
18948;DHT22;9607;51.600;7.558;2024-01-15T10:46:57;1.80;99.90
18948;DHT22;9607;51.600;7.558;2024-01-15T10:49:23;1.80;99.90
18948;DHT22;9607;51.600;7.558;2024-01-15T10:51:52;1.80;99.90
18948;DHT22;9607;51.600;7.558;2024-01-15T10:54:20;1.90;99.90
18948;DHT22;9607;51.600;7.558;2024-01-15T10:56:49;1.90;99.90
18948;DHT22;9607;51.600;7.558;2024-01-15T10:59:19;2.00;99.90
18948;DHT22;9607;51.600;7.558;2024-01-15T11:01:47;2.00;99.90
18948;DHT22;9607;51.600;7.558;2024-01-15T11:04:14;2.10;99.90
18948;DHT22;9607;51.600;7.558;2024-01-15T11:06:43;2.20;99.90
18948;DHT22;9607;51.600;7.558;2024-01-15T11:09:12;2.10;99.90
18948;DHT22;9607;51.600;7.558;2024-01-15T11:11:41;2.10;99.90
18948;DHT22;9607;51.600;7.558;2024-01-15T11:14:08;2.10;99.90
18948;DHT22;9607;51.600;7.558;2024-01-15T11:16:56;2.20;99.90
18948;DHT22;9607;51.600;7.558;2024-01-15T11:19:24;2.20;99.90
18948;DHT22;9607;51.600;7.558;2024-01-15T11:21:51;2.30;99.90
18948;DHT22;9607;51.600;7.558;2024-01-15T11:24:38;2.30;99.90
18948;DHT22;9607;51.600;7.558;2024-01-15T11:27:05;2.30;99.90
18948;DHT22;9607;51.600;7.558;2024-01-15T11:29:33;2.30;99.90
18948;DHT22;9607;51.600;7.558;2024-01-15T11:32:03;2.30;99.90
18948;DHT22;9607;51.600;7.558;2024-01-15T11:34:58;2.30;99.90
18948;DHT22;9607;51.600;7.558;2024-01-15T11:37:28;2.30;99.90
18948;DHT22;9607;51.600;7.558;2024-01-15T11:39:59;2.50;99.90
18948;DHT22;9607;51.600;7.558;2024-01-15T11:42:27;2.50;99.90
18948;DHT22;9607;51.600;7.558;2024-01-15T11:44:54;2.60;99.90
18948;DHT22;9607;51.600;7.558;2024-01-15T11:47:53;2.70;99.90
18948;DHT22;9607;51.600;7.558;2024-01-15T11:50:24;2.80;99.90
18948;DHT22;9607;51.600;7.558;2024-01-15T11:52:59;2.90;99.90
18948;DHT22;9607;51.600;7.558;2024-01-15T11:55:27;2.90;99.90
18948;DHT22;9607;51.600;7.558;2024-01-15T11:57:57;2.90;99.90
18948;DHT22;9607;51.600;7.558;2024-01-15T12:00:25;2.90;99.90
18948;DHT22;9607;51.600;7.558;2024-01-15T12:02:53;2.90;99.90
18948;DHT22;9607;51.600;7.558;2024-01-15T12:05:23;2.90;99.90
18948;DHT22;9607;51.600;7.558;2024-01-15T12:07:50;2.90;99.90
18948;DHT22;9607;51.600;7.558;2024-01-15T12:10:18;2.80;99.90
18948;DHT22;9607;51.600;7.558;2024-01-15T12:12:58;2.80;99.90
18948;DHT22;9607;51.600;7.558;2024-01-15T12:15:26;2.70;99.90
18948;DHT22;9607;51.600;7.558;2024-01-15T12:17:57;2.60;99.90
18948;DHT22;9607;51.600;7.558;2024-01-15T12:20:24;2.60;99.90
18948;DHT22;9607;51.600;7.558;2024-01-15T12:22:51;2.50;99.90
18948;DHT22;9607;51.600;7.558;2024-01-15T12:25:18;2.50;99.90
18948;DHT22;9607;51.600;7.558;2024-01-15T12:27:45;2.40;99.90
18948;DHT22;9607;51.600;7.558;2024-01-15T12:30:13;2.30;99.90
18948;DHT22;9607;51.600;7.558;2024-01-15T12:32:41;2.40;99.90
18948;DHT22;9607;51.600;7.558;2024-01-15T12:35:10;2.40;99.90
18948;DHT22;9607;51.600;7.558;2024-01-15T12:37:37;2.40;99.90
18948;DHT22;9607;51.600;7.558;2024-01-15T12:40:04;2.50;99.90
18948;DHT22;9607;51.600;7.558;2024-01-15T12:42:32;2.50;99.90
18948;DHT22;9607;51.600;7.558;2024-01-15T12:45:00;2.60;99.90
18948;DHT22;9607;51.600;7.558;2024-01-15T12:47:27;2.60;99.90
18948;DHT22;9607;51.600;7.558;2024-01-15T12:49:54;2.60;99.90
18948;DHT22;9607;51.600;7.558;2024-01-15T12:52:22;2.60;99.90
18948;DHT22;9607;51.600;7.558;2024-01-15T12:54:49;2.50;99.90
18948;DHT22;9607;51.600;7.558;2024-01-15T12:57:17;2.50;99.90
18948;DHT22;9607;51.600;7.558;2024-01-15T12:59:44;2.50;99.90
18948;DHT22;9607;51.600;7.558;2024-01-15T13:02:11;2.50;99.90
18948;DHT22;9607;51.600;7.558;2024-01-15T13:04:39;2.60;99.90
18948;DHT22;9607;51.600;7.558;2024-01-15T13:07:06;2.70;99.90
18948;DHT22;9607;51.600;7.558;2024-01-15T13:09:35;2.80;99.90
18948;DHT22;9607;51.600;7.558;2024-01-15T13:12:02;2.80;99.90
18948;DHT22;9607;51.600;7.558;2024-01-15T13:14:29;2.80;99.90
18948;DHT22;9607;51.600;7.558;2024-01-15T13:16:56;2.80;99.90
18948;DHT22;9607;51.600;7.558;2024-01-15T13:19:24;2.80;99.90
18948;DHT22;9607;51.600;7.558;2024-01-15T13:21:51;2.80;99.90
18948;DHT22;9607;51.600;7.558;2024-01-15T13:24:18;2.70;99.90
18948;DHT22;9607;51.600;7.558;2024-01-15T13:26:47;2.70;99.90
18948;DHT22;9607;51.600;7.558;2024-01-15T13:29:13;2.70;99.90
18948;DHT22;9607;51.600;7.558;2024-01-15T13:31:40;2.60;99.90
18948;DHT22;9607;51.600;7.558;2024-01-15T13:34:07;2.60;99.90
18948;DHT22;9607;51.600;7.558;2024-01-15T13:36:34;2.50;99.90
18948;DHT22;9607;51.600;7.558;2024-01-15T13:39:01;2.70;99.90
18948;DHT22;9607;51.600;7.558;2024-01-15T13:41:28;2.60;99.90
18948;DHT22;9607;51.600;7.558;2024-01-15T13:43:57;2.60;99.90
18948;DHT22;9607;51.600;7.558;2024-01-15T13:46:25;2.60;99.90
18948;DHT22;9607;51.600;7.558;2024-01-15T13:48:52;2.60;99.90
18948;DHT22;9607;51.600;7.558;2024-01-15T13:51:21;2.60;99.90
18948;DHT22;9607;51.600;7.558;2024-01-15T13:53:48;2.60;99.90
18948;DHT22;9607;51.600;7.558;2024-01-15T13:56:15;2.60;99.90
18948;DHT22;9607;51.600;7.558;2024-01-15T13:58:42;2.60;99.90
18948;DHT22;9607;51.600;7.558;2024-01-15T14:01:11;2.60;99.90
18948;DHT22;9607;51.600;7.558;2024-01-15T14:03:38;2.70;99.90
18948;DHT22;9607;51.600;7.558;2024-01-15T14:06:05;2.70;99.90
18948;DHT22;9607;51.600;7.558;2024-01-15T14:08:34;2.60;99.90
18948;DHT22;9607;51.600;7.558;2024-01-15T14:11:01;2.60;99.90
18948;DHT22;9607;51.600;7.558;2024-01-15T14:13:28;2.50;99.90
18948;DHT22;9607;51.600;7.558;2024-01-15T14:15:55;2.50;99.90
18948;DHT22;9607;51.600;7.558;2024-01-15T14:18:23;2.50;99.90
18948;DHT22;9607;51.600;7.558;2024-01-15T14:20:51;2.60;99.90
18948;DHT22;9607;51.600;7.558;2024-01-15T14:23:19;2.50;99.90
18948;DHT22;9607;51.600;7.558;2024-01-15T14:25:45;2.50;99.90
18948;DHT22;9607;51.600;7.558;2024-01-15T14:28:12;2.50;99.90
18948;DHT22;9607;51.600;7.558;2024-01-15T14:30:39;2.50;99.90
18948;DHT22;9607;51.600;7.558;2024-01-15T14:33:06;2.50;99.90
18948;DHT22;9607;51.600;7.558;2024-01-15T14:35:34;2.50;99.90
18948;DHT22;9607;51.600;7.558;2024-01-15T14:38:01;2.50;99.90
18948;DHT22;9607;51.600;7.558;2024-01-15T14:40:27;2.50;99.90
18948;DHT22;9607;51.600;7.558;2024-01-15T14:42:55;2.50;99.90
18948;DHT22;9607;51.600;7.558;2024-01-15T14:45:22;2.40;99.90
18948;DHT22;9607;51.600;7.558;2024-01-15T14:47:48;2.50;99.90
18948;DHT22;9607;51.600;7.558;2024-01-15T14:50:15;2.40;99.90
18948;DHT22;9607;51.600;7.558;2024-01-15T14:52:43;2.40;99.90
18948;DHT22;9607;51.600;7.558;2024-01-15T14:55:11;2.40;99.90
18948;DHT22;9607;51.600;7.558;2024-01-15T14:57:38;2.40;99.90
18948;DHT22;9607;51.600;7.558;2024-01-15T15:00:06;2.30;99.90
18948;DHT22;9607;51.600;7.558;2024-01-15T15:02:34;2.30;99.90
18948;DHT22;9607;51.600;7.558;2024-01-15T15:05:00;2.30;99.90
18948;DHT22;9607;51.600;7.558;2024-01-15T15:07:27;2.30;99.90
18948;DHT22;9607;51.600;7.558;2024-01-15T15:09:59;2.30;99.90
18948;DHT22;9607;51.600;7.558;2024-01-15T15:12:25;2.30;99.90
18948;DHT22;9607;51.600;7.558;2024-01-15T15:14:52;2.30;99.90
18948;DHT22;9607;51.600;7.558;2024-01-15T15:17:19;2.30;99.90
18948;DHT22;9607;51.600;7.558;2024-01-15T15:19:46;2.30;99.90
18948;DHT22;9607;51.600;7.558;2024-01-15T15:22:13;2.20;99.90
18948;DHT22;9607;51.600;7.558;2024-01-15T15:24:40;2.20;99.90
18948;DHT22;9607;51.600;7.558;2024-01-15T15:27:08;2.20;99.90
18948;DHT22;9607;51.600;7.558;2024-01-15T15:29:35;2.10;99.90
18948;DHT22;9607;51.600;7.558;2024-01-15T15:32:02;2.10;99.90
18948;DHT22;9607;51.600;7.558;2024-01-15T15:34:28;2.10;99.90
18948;DHT22;9607;51.600;7.558;2024-01-15T15:36:55;2.10;99.90
18948;DHT22;9607;51.600;7.558;2024-01-15T15:39:25;2.20;99.90
18948;DHT22;9607;51.600;7.558;2024-01-15T15:41:51;2.20;99.90
18948;DHT22;9607;51.600;7.558;2024-01-15T15:44:19;2.20;99.90
18948;DHT22;9607;51.600;7.558;2024-01-15T15:46:46;2.10;99.90
18948;DHT22;9607;51.600;7.558;2024-01-15T15:49:13;2.10;99.90
18948;DHT22;9607;51.600;7.558;2024-01-15T15:51:41;2.10;99.90
18948;DHT22;9607;51.600;7.558;2024-01-15T15:54:08;2.10;99.90
18948;DHT22;9607;51.600;7.558;2024-01-15T15:56:36;2.10;99.90
18948;DHT22;9607;51.600;7.558;2024-01-15T15:59:04;2.00;99.90
18948;DHT22;9607;51.600;7.558;2024-01-15T16:01:33;2.00;99.90
18948;DHT22;9607;51.600;7.558;2024-01-15T16:04:00;2.00;99.90